sensor_id;sensor_type;location;lat;lon;timestamp;P1;durP1;ratioP1;P2;durP2;ratioP2
12986;SDS011;58897;51.960;5.582;2023-02-17T00:01:09;17.20;;;9.80;;
12986;SDS011;58897;51.960;5.582;2023-02-17T00:03:37;19.10;;;10.33;;
12986;SDS011;58897;51.960;5.582;2023-02-17T00:06:04;16.03;;;8.77;;
12986;SDS011;58897;51.960;5.582;2023-02-17T00:08:32;15.83;;;9.43;;
12986;SDS011;58897;51.960;5.582;2023-02-17T00:10:59;16.20;;;8.80;;
12986;SDS011;58897;51.960;5.582;2023-02-17T00:13:25;19.97;;;9.83;;
12986;SDS011;58897;51.960;5.582;2023-02-17T00:15:52;19.03;;;10.50;;
12986;SDS011;58897;51.960;5.582;2023-02-17T00:18:19;17.00;;;10.53;;
12986;SDS011;58897;51.960;5.582;2023-02-17T00:20:45;15.77;;;10.03;;
12986;SDS011;58897;51.960;5.582;2023-02-17T00:23:12;18.73;;;10.27;;
12986;SDS011;58897;51.960;5.582;2023-02-17T00:25:38;16.77;;;9.70;;
12986;SDS011;58897;51.960;5.582;2023-02-17T00:28:05;15.93;;;9.50;;
12986;SDS011;58897;51.960;5.582;2023-02-17T00:30:32;14.23;;;9.33;;
12986;SDS011;58897;51.960;5.582;2023-02-17T00:32:58;16.03;;;9.27;;
12986;SDS011;58897;51.960;5.582;2023-02-17T00:35:25;16.23;;;8.93;;
12986;SDS011;58897;51.960;5.582;2023-02-17T00:37:51;16.73;;;9.30;;
12986;SDS011;58897;51.960;5.582;2023-02-17T00:40:18;14.60;;;8.93;;
12986;SDS011;58897;51.960;5.582;2023-02-17T00:42:44;15.43;;;9.10;;
12986;SDS011;58897;51.960;5.582;2023-02-17T00:45:11;17.83;;;9.70;;
12986;SDS011;58897;51.960;5.582;2023-02-17T00:47:37;19.20;;;10.33;;
12986;SDS011;58897;51.960;5.582;2023-02-17T00:50:04;15.93;;;9.17;;
12986;SDS011;58897;51.960;5.582;2023-02-17T00:52:31;17.10;;;9.90;;
12986;SDS011;58897;51.960;5.582;2023-02-17T00:54:58;15.47;;;9.57;;
12986;SDS011;58897;51.960;5.582;2023-02-17T00:57:24;15.23;;;9.70;;
12986;SDS011;58897;51.960;5.582;2023-02-17T00:59:51;17.50;;;9.37;;
12986;SDS011;58897;51.960;5.582;2023-02-17T01:02:18;13.10;;;9.13;;
12986;SDS011;58897;51.960;5.582;2023-02-17T01:04:44;20.77;;;10.70;;
12986;SDS011;58897;51.960;5.582;2023-02-17T01:07:10;17.37;;;9.27;;
12986;SDS011;58897;51.960;5.582;2023-02-17T01:09:37;18.93;;;9.97;;
12986;SDS011;58897;51.960;5.582;2023-02-17T01:12:03;15.77;;;9.60;;
12986;SDS011;58897;51.960;5.582;2023-02-17T01:14:30;18.50;;;9.40;;
12986;SDS011;58897;51.960;5.582;2023-02-17T01:16:56;14.93;;;8.93;;
12986;SDS011;58897;51.960;5.582;2023-02-17T01:19:23;14.47;;;8.70;;
12986;SDS011;58897;51.960;5.582;2023-02-17T01:21:49;18.27;;;10.17;;
12986;SDS011;58897;51.960;5.582;2023-02-17T01:24:16;16.27;;;9.73;;
12986;SDS011;58897;51.960;5.582;2023-02-17T01:26:43;18.90;;;10.30;;
12986;SDS011;58897;51.960;5.582;2023-02-17T01:29:09;19.53;;;11.37;;
12986;SDS011;58897;51.960;5.582;2023-02-17T01:31:36;19.13;;;10.67;;
12986;SDS011;58897;51.960;5.582;2023-02-17T01:34:03;20.67;;;11.53;;
12986;SDS011;58897;51.960;5.582;2023-02-17T01:36:30;21.93;;;12.33;;
12986;SDS011;58897;51.960;5.582;2023-02-17T01:38:57;24.33;;;12.87;;
12986;SDS011;58897;51.960;5.582;2023-02-17T01:41:25;21.00;;;11.87;;
12986;SDS011;58897;51.960;5.582;2023-02-17T01:44:06;24.40;;;13.67;;
12986;SDS011;58897;51.960;5.582;2023-02-17T01:46:33;24.60;;;13.60;;
12986;SDS011;58897;51.960;5.582;2023-02-17T01:49:08;27.77;;;12.70;;
12986;SDS011;58897;51.960;5.582;2023-02-17T01:51:41;24.20;;;13.00;;
12986;SDS011;58897;51.960;5.582;2023-02-17T01:54:33;22.23;;;12.83;;
12986;SDS011;58897;51.960;5.582;2023-02-17T01:57:03;23.13;;;11.70;;
12986;SDS011;58897;51.960;5.582;2023-02-17T01:59:30;25.07;;;12.87;;
12986;SDS011;58897;51.960;5.582;2023-02-17T02:01:58;24.00;;;12.73;;
12986;SDS011;58897;51.960;5.582;2023-02-17T02:04:29;24.23;;;12.17;;
12986;SDS011;58897;51.960;5.582;2023-02-17T02:06:58;25.60;;;12.10;;
12986;SDS011;58897;51.960;5.582;2023-02-17T02:09:35;23.43;;;10.90;;
12986;SDS011;58897;51.960;5.582;2023-02-17T02:12:18;22.30;;;11.80;;
12986;SDS011;58897;51.960;5.582;2023-02-17T02:14:50;23.93;;;12.60;;
12986;SDS011;58897;51.960;5.582;2023-02-17T02:23:03;25.10;;;12.83;;
12986;SDS011;58897;51.960;5.582;2023-02-17T02:34:21;20.10;;;11.00;;
12986;SDS011;58897;51.960;5.582;2023-02-17T02:37:08;24.13;;;11.60;;
12986;SDS011;58897;51.960;5.582;2023-02-17T02:39:41;22.77;;;11.07;;
12986;SDS011;58897;51.960;5.582;2023-02-17T02:42:16;20.70;;;11.67;;
12986;SDS011;58897;51.960;5.582;2023-02-17T02:44:46;22.30;;;11.97;;
12986;SDS011;58897;51.960;5.582;2023-02-17T02:50:14;22.70;;;11.13;;
12986;SDS011;58897;51.960;5.582;2023-02-17T02:58:37;17.70;;;9.93;;
12986;SDS011;58897;51.960;5.582;2023-02-17T03:06:50;17.03;;;9.53;;
12986;SDS011;58897;51.960;5.582;2023-02-17T03:09:23;17.53;;;9.90;;
12986;SDS011;58897;51.960;5.582;2023-02-17T03:11:53;19.60;;;10.17;;
12986;SDS011;58897;51.960;5.582;2023-02-17T03:14:21;17.63;;;9.33;;
12986;SDS011;58897;51.960;5.582;2023-02-17T03:16:48;21.07;;;10.23;;
12986;SDS011;58897;51.960;5.582;2023-02-17T03:19:17;19.10;;;10.10;;
12986;SDS011;58897;51.960;5.582;2023-02-17T03:22:00;21.90;;;9.97;;
12986;SDS011;58897;51.960;5.582;2023-02-17T03:24:32;18.93;;;8.97;;
12986;SDS011;58897;51.960;5.582;2023-02-17T03:26:59;21.83;;;10.27;;
12986;SDS011;58897;51.960;5.582;2023-02-17T03:29:26;17.50;;;9.27;;
12986;SDS011;58897;51.960;5.582;2023-02-17T03:31:52;18.10;;;9.47;;
12986;SDS011;58897;51.960;5.582;2023-02-17T03:34:19;20.83;;;10.90;;
12986;SDS011;58897;51.960;5.582;2023-02-17T03:36:45;21.30;;;10.60;;
12986;SDS011;58897;51.960;5.582;2023-02-17T03:39:12;16.73;;;8.60;;
12986;SDS011;58897;51.960;5.582;2023-02-17T03:41:38;16.70;;;9.17;;
12986;SDS011;58897;51.960;5.582;2023-02-17T03:44:05;18.67;;;10.27;;
12986;SDS011;58897;51.960;5.582;2023-02-17T03:46:31;19.53;;;9.40;;
12986;SDS011;58897;51.960;5.582;2023-02-17T03:48:58;16.20;;;8.57;;
12986;SDS011;58897;51.960;5.582;2023-02-17T03:51:25;15.97;;;7.83;;
12986;SDS011;58897;51.960;5.582;2023-02-17T03:53:51;17.87;;;9.30;;
12986;SDS011;58897;51.960;5.582;2023-02-17T03:56:18;15.77;;;8.70;;
12986;SDS011;58897;51.960;5.582;2023-02-17T03:58:44;16.53;;;8.97;;
12986;SDS011;58897;51.960;5.582;2023-02-17T04:01:11;15.77;;;9.00;;
12986;SDS011;58897;51.960;5.582;2023-02-17T04:03:39;18.67;;;9.50;;
12986;SDS011;58897;51.960;5.582;2023-02-17T04:06:06;13.47;;;7.70;;
12986;SDS011;58897;51.960;5.582;2023-02-17T04:08:34;14.70;;;8.40;;
12986;SDS011;58897;51.960;5.582;2023-02-17T04:11:02;17.20;;;7.87;;
12986;SDS011;58897;51.960;5.582;2023-02-17T04:13:29;15.47;;;9.03;;
12986;SDS011;58897;51.960;5.582;2023-02-17T04:15:56;15.70;;;9.27;;
12986;SDS011;58897;51.960;5.582;2023-02-17T04:18:23;15.17;;;8.90;;
12986;SDS011;58897;51.960;5.582;2023-02-17T04:20:50;15.33;;;8.83;;
12986;SDS011;58897;51.960;5.582;2023-02-17T04:23:17;11.60;;;7.17;;
12986;SDS011;58897;51.960;5.582;2023-02-17T04:25:43;13.63;;;7.23;;
12986;SDS011;58897;51.960;5.582;2023-02-17T04:28:11;13.27;;;7.90;;
12986;SDS011;58897;51.960;5.582;2023-02-17T04:30:38;16.23;;;8.40;;
12986;SDS011;58897;51.960;5.582;2023-02-17T04:33:07;14.20;;;8.23;;
12986;SDS011;58897;51.960;5.582;2023-02-17T04:35:34;17.77;;;8.37;;
12986;SDS011;58897;51.960;5.582;2023-02-17T04:38:00;13.40;;;8.17;;
12986;SDS011;58897;51.960;5.582;2023-02-17T04:40:27;15.97;;;8.03;;
12986;SDS011;58897;51.960;5.582;2023-02-17T04:42:53;14.90;;;8.37;;
12986;SDS011;58897;51.960;5.582;2023-02-17T04:45:20;15.70;;;8.27;;
12986;SDS011;58897;51.960;5.582;2023-02-17T04:47:47;14.93;;;7.90;;
12986;SDS011;58897;51.960;5.582;2023-02-17T04:50:14;15.63;;;8.23;;
12986;SDS011;58897;51.960;5.582;2023-02-17T04:52:41;16.10;;;7.53;;
12986;SDS011;58897;51.960;5.582;2023-02-17T04:55:08;17.30;;;8.50;;
12986;SDS011;58897;51.960;5.582;2023-02-17T04:57:35;16.40;;;8.33;;
12986;SDS011;58897;51.960;5.582;2023-02-17T05:00:02;16.53;;;8.80;;
12986;SDS011;58897;51.960;5.582;2023-02-17T05:02:30;17.77;;;8.43;;
12986;SDS011;58897;51.960;5.582;2023-02-17T05:04:56;14.60;;;7.97;;
12986;SDS011;58897;51.960;5.582;2023-02-17T05:07:23;18.33;;;7.50;;
12986;SDS011;58897;51.960;5.582;2023-02-17T05:09:50;17.83;;;8.77;;
12986;SDS011;58897;51.960;5.582;2023-02-17T05:12:16;14.63;;;6.93;;
12986;SDS011;58897;51.960;5.582;2023-02-17T05:14:43;12.93;;;7.80;;
12986;SDS011;58897;51.960;5.582;2023-02-17T05:17:09;15.17;;;7.57;;
12986;SDS011;58897;51.960;5.582;2023-02-17T05:19:36;14.90;;;7.20;;
12986;SDS011;58897;51.960;5.582;2023-02-17T05:22:02;16.83;;;9.63;;
12986;SDS011;58897;51.960;5.582;2023-02-17T05:24:29;16.30;;;8.73;;
12986;SDS011;58897;51.960;5.582;2023-02-17T05:26:55;15.77;;;8.80;;
12986;SDS011;58897;51.960;5.582;2023-02-17T05:29:22;16.63;;;8.50;;
12986;SDS011;58897;51.960;5.582;2023-02-17T05:31:49;17.30;;;8.37;;
12986;SDS011;58897;51.960;5.582;2023-02-17T05:34:15;15.30;;;8.63;;
12986;SDS011;58897;51.960;5.582;2023-02-17T05:36:42;15.83;;;8.60;;
12986;SDS011;58897;51.960;5.582;2023-02-17T05:39:08;16.13;;;8.47;;
12986;SDS011;58897;51.960;5.582;2023-02-17T05:41:35;15.13;;;8.33;;
12986;SDS011;58897;51.960;5.582;2023-02-17T05:44:01;19.07;;;8.73;;
12986;SDS011;58897;51.960;5.582;2023-02-17T05:46:28;16.30;;;8.57;;
12986;SDS011;58897;51.960;5.582;2023-02-17T05:48:54;13.00;;;7.37;;
12986;SDS011;58897;51.960;5.582;2023-02-17T05:51:21;14.37;;;8.07;;
12986;SDS011;58897;51.960;5.582;2023-02-17T05:53:47;13.17;;;7.70;;
12986;SDS011;58897;51.960;5.582;2023-02-17T05:56:14;12.50;;;6.50;;
12986;SDS011;58897;51.960;5.582;2023-02-17T05:58:40;14.33;;;7.30;;
12986;SDS011;58897;51.960;5.582;2023-02-17T06:01:07;12.67;;;7.73;;
12986;SDS011;58897;51.960;5.582;2023-02-17T06:03:35;14.47;;;8.63;;
12986;SDS011;58897;51.960;5.582;2023-02-17T06:06:02;15.10;;;7.60;;
12986;SDS011;58897;51.960;5.582;2023-02-17T06:08:30;12.23;;;7.47;;
12986;SDS011;58897;51.960;5.582;2023-02-17T06:10:56;15.93;;;8.53;;
12986;SDS011;58897;51.960;5.582;2023-02-17T06:13:23;12.53;;;7.60;;
12986;SDS011;58897;51.960;5.582;2023-02-17T06:15:49;12.87;;;7.20;;
12986;SDS011;58897;51.960;5.582;2023-02-17T06:18:16;15.40;;;7.73;;
12986;SDS011;58897;51.960;5.582;2023-02-17T06:20:42;13.23;;;7.50;;
12986;SDS011;58897;51.960;5.582;2023-02-17T06:23:09;15.07;;;8.03;;
12986;SDS011;58897;51.960;5.582;2023-02-17T06:25:36;14.53;;;8.13;;
12986;SDS011;58897;51.960;5.582;2023-02-17T06:28:03;14.30;;;8.17;;
12986;SDS011;58897;51.960;5.582;2023-02-17T06:30:30;14.53;;;7.20;;
12986;SDS011;58897;51.960;5.582;2023-02-17T06:32:56;14.60;;;8.37;;
12986;SDS011;58897;51.960;5.582;2023-02-17T06:35:24;16.33;;;8.47;;
12986;SDS011;58897;51.960;5.582;2023-02-17T06:37:51;15.03;;;7.90;;
12986;SDS011;58897;51.960;5.582;2023-02-17T06:40:17;15.77;;;7.50;;
12986;SDS011;58897;51.960;5.582;2023-02-17T06:42:44;14.60;;;7.80;;
12986;SDS011;58897;51.960;5.582;2023-02-17T06:45:10;12.73;;;7.77;;
12986;SDS011;58897;51.960;5.582;2023-02-17T06:47:37;15.70;;;9.03;;
12986;SDS011;58897;51.960;5.582;2023-02-17T06:50:04;13.83;;;8.00;;
12986;SDS011;58897;51.960;5.582;2023-02-17T06:52:31;15.33;;;8.10;;
12986;SDS011;58897;51.960;5.582;2023-02-17T06:54:58;20.40;;;7.67;;
12986;SDS011;58897;51.960;5.582;2023-02-17T06:57:24;12.87;;;7.47;;
12986;SDS011;58897;51.960;5.582;2023-02-17T06:59:51;13.63;;;7.30;;
12986;SDS011;58897;51.960;5.582;2023-02-17T07:02:18;14.90;;;7.87;;
12986;SDS011;58897;51.960;5.582;2023-02-17T07:04:44;14.63;;;7.53;;
12986;SDS011;58897;51.960;5.582;2023-02-17T07:07:11;15.40;;;9.03;;
12986;SDS011;58897;51.960;5.582;2023-02-17T07:09:38;13.60;;;7.13;;
12986;SDS011;58897;51.960;5.582;2023-02-17T07:12:04;14.17;;;8.83;;
12986;SDS011;58897;51.960;5.582;2023-02-17T07:14:32;13.77;;;7.10;;
12986;SDS011;58897;51.960;5.582;2023-02-17T07:16:59;12.63;;;7.73;;
12986;SDS011;58897;51.960;5.582;2023-02-17T07:19:26;12.20;;;6.43;;
12986;SDS011;58897;51.960;5.582;2023-02-17T07:21:53;14.23;;;7.07;;
12986;SDS011;58897;51.960;5.582;2023-02-17T07:24:20;13.23;;;6.87;;
12986;SDS011;58897;51.960;5.582;2023-02-17T07:26:46;16.87;;;8.07;;
12986;SDS011;58897;51.960;5.582;2023-02-17T07:29:13;14.73;;;7.23;;
12986;SDS011;58897;51.960;5.582;2023-02-17T07:31:39;14.03;;;7.70;;
12986;SDS011;58897;51.960;5.582;2023-02-17T07:34:06;12.93;;;7.63;;
12986;SDS011;58897;51.960;5.582;2023-02-17T07:36:33;11.40;;;6.17;;
12986;SDS011;58897;51.960;5.582;2023-02-17T07:38:59;14.80;;;7.90;;
12986;SDS011;58897;51.960;5.582;2023-02-17T07:41:26;11.57;;;6.57;;
12986;SDS011;58897;51.960;5.582;2023-02-17T07:43:58;11.50;;;6.97;;
12986;SDS011;58897;51.960;5.582;2023-02-17T07:46:25;11.00;;;6.30;;
12986;SDS011;58897;51.960;5.582;2023-02-17T07:48:52;10.67;;;5.93;;
12986;SDS011;58897;51.960;5.582;2023-02-17T07:51:20;14.63;;;8.37;;
12986;SDS011;58897;51.960;5.582;2023-02-17T07:53:48;14.17;;;7.27;;
12986;SDS011;58897;51.960;5.582;2023-02-17T07:56:17;13.60;;;6.70;;
12986;SDS011;58897;51.960;5.582;2023-02-17T07:58:46;10.67;;;6.87;;
12986;SDS011;58897;51.960;5.582;2023-02-17T08:01:15;10.87;;;7.00;;
12986;SDS011;58897;51.960;5.582;2023-02-17T08:03:43;12.33;;;7.03;;
12986;SDS011;58897;51.960;5.582;2023-02-17T08:06:11;13.27;;;6.67;;
12986;SDS011;58897;51.960;5.582;2023-02-17T08:08:40;12.83;;;7.53;;
12986;SDS011;58897;51.960;5.582;2023-02-17T08:11:25;10.33;;;6.33;;
12986;SDS011;58897;51.960;5.582;2023-02-17T08:14:14;10.80;;;6.73;;
12986;SDS011;58897;51.960;5.582;2023-02-17T08:16:40;10.27;;;6.57;;
12986;SDS011;58897;51.960;5.582;2023-02-17T08:19:07;12.43;;;6.87;;
12986;SDS011;58897;51.960;5.582;2023-02-17T08:21:34;13.80;;;7.43;;
12986;SDS011;58897;51.960;5.582;2023-02-17T08:24:00;12.40;;;7.87;;
12986;SDS011;58897;51.960;5.582;2023-02-17T08:26:27;11.70;;;6.73;;
12986;SDS011;58897;51.960;5.582;2023-02-17T08:28:54;11.87;;;7.23;;
12986;SDS011;58897;51.960;5.582;2023-02-17T08:31:22;10.77;;;6.43;;
12986;SDS011;58897;51.960;5.582;2023-02-17T08:33:51;10.73;;;6.07;;
12986;SDS011;58897;51.960;5.582;2023-02-17T08:36:18;12.27;;;7.13;;
12986;SDS011;58897;51.960;5.582;2023-02-17T08:38:47;14.10;;;7.27;;
12986;SDS011;58897;51.960;5.582;2023-02-17T08:41:23;14.60;;;8.77;;
12986;SDS011;58897;51.960;5.582;2023-02-17T08:43:58;10.13;;;5.67;;
12986;SDS011;58897;51.960;5.582;2023-02-17T08:46:26;10.40;;;6.93;;
12986;SDS011;58897;51.960;5.582;2023-02-17T08:48:53;10.93;;;5.97;;
12986;SDS011;58897;51.960;5.582;2023-02-17T08:51:22;9.37;;;6.27;;
12986;SDS011;58897;51.960;5.582;2023-02-17T08:53:53;10.63;;;6.53;;
12986;SDS011;58897;51.960;5.582;2023-02-17T08:56:24;10.80;;;6.57;;
12986;SDS011;58897;51.960;5.582;2023-02-17T08:58:52;9.67;;;6.00;;
12986;SDS011;58897;51.960;5.582;2023-02-17T09:01:18;10.27;;;6.57;;
12986;SDS011;58897;51.960;5.582;2023-02-17T09:03:46;10.60;;;6.57;;
12986;SDS011;58897;51.960;5.582;2023-02-17T09:06:14;7.80;;;5.70;;
12986;SDS011;58897;51.960;5.582;2023-02-17T09:08:42;9.97;;;6.57;;
12986;SDS011;58897;51.960;5.582;2023-02-17T09:11:09;9.30;;;5.97;;
12986;SDS011;58897;51.960;5.582;2023-02-17T09:13:36;9.13;;;5.53;;
12986;SDS011;58897;51.960;5.582;2023-02-17T09:16:03;10.10;;;6.30;;
12986;SDS011;58897;51.960;5.582;2023-02-17T09:18:31;8.57;;;5.73;;
12986;SDS011;58897;51.960;5.582;2023-02-17T09:20:57;10.30;;;6.10;;
12986;SDS011;58897;51.960;5.582;2023-02-17T09:23:25;8.83;;;5.17;;
12986;SDS011;58897;51.960;5.582;2023-02-17T09:26:05;5.10;;;3.60;;
12986;SDS011;58897;51.960;5.582;2023-02-17T09:28:34;6.70;;;5.20;;
12986;SDS011;58897;51.960;5.582;2023-02-17T09:31:11;11.07;;;5.90;;
12986;SDS011;58897;51.960;5.582;2023-02-17T09:33:43;7.77;;;5.33;;
12986;SDS011;58897;51.960;5.582;2023-02-17T09:36:11;9.67;;;5.80;;
12986;SDS011;58897;51.960;5.582;2023-02-17T09:38:39;8.63;;;5.27;;
12986;SDS011;58897;51.960;5.582;2023-02-17T09:41:14;8.20;;;5.80;;
12986;SDS011;58897;51.960;5.582;2023-02-17T09:43:50;9.40;;;5.37;;
12986;SDS011;58897;51.960;5.582;2023-02-17T09:48:44;7.00;;;4.97;;
12986;SDS011;58897;51.960;5.582;2023-02-17T09:51:16;7.73;;;5.03;;
12986;SDS011;58897;51.960;5.582;2023-02-17T09:53:52;4.73;;;3.57;;
12986;SDS011;58897;51.960;5.582;2023-02-17T09:56:27;8.40;;;5.47;;
12986;SDS011;58897;51.960;5.582;2023-02-17T09:58:59;11.73;;;5.17;;
12986;SDS011;58897;51.960;5.582;2023-02-17T10:01:32;6.57;;;4.47;;
12986;SDS011;58897;51.960;5.582;2023-02-17T10:06:32;8.33;;;4.77;;
12986;SDS011;58897;51.960;5.582;2023-02-17T10:09:03;6.93;;;4.70;;
12986;SDS011;58897;51.960;5.582;2023-02-17T10:11:43;7.43;;;4.70;;
12986;SDS011;58897;51.960;5.582;2023-02-17T10:14:30;7.10;;;4.60;;
12986;SDS011;58897;51.960;5.582;2023-02-17T10:17:07;6.03;;;4.03;;
12986;SDS011;58897;51.960;5.582;2023-02-17T10:22:21;8.30;;;4.43;;
12986;SDS011;58897;51.960;5.582;2023-02-17T10:24:49;6.90;;;4.77;;
12986;SDS011;58897;51.960;5.582;2023-02-17T10:32:52;7.20;;;4.40;;
12986;SDS011;58897;51.960;5.582;2023-02-17T10:35:29;9.10;;;5.80;;
12986;SDS011;58897;51.960;5.582;2023-02-17T10:40:44;6.17;;;4.30;;
12986;SDS011;58897;51.960;5.582;2023-02-17T10:43:20;7.17;;;5.17;;
12986;SDS011;58897;51.960;5.582;2023-02-17T10:45:49;9.07;;;4.80;;
12986;SDS011;58897;51.960;5.582;2023-02-17T10:50:46;7.23;;;4.40;;
12986;SDS011;58897;51.960;5.582;2023-02-17T10:53:20;8.43;;;5.03;;
12986;SDS011;58897;51.960;5.582;2023-02-17T10:58:34;8.80;;;5.30;;
12986;SDS011;58897;51.960;5.582;2023-02-17T11:01:11;6.63;;;4.37;;
12986;SDS011;58897;51.960;5.582;2023-02-17T11:03:39;8.77;;;5.33;;
12986;SDS011;58897;51.960;5.582;2023-02-17T11:06:21;9.90;;;5.37;;
12986;SDS011;58897;51.960;5.582;2023-02-17T11:08:49;7.70;;;4.80;;
12986;SDS011;58897;51.960;5.582;2023-02-17T11:11:21;7.23;;;4.27;;
12986;SDS011;58897;51.960;5.582;2023-02-17T11:16:24;7.83;;;4.70;;
12986;SDS011;58897;51.960;5.582;2023-02-17T11:18:54;9.43;;;5.20;;
12986;SDS011;58897;51.960;5.582;2023-02-17T11:21:21;7.67;;;4.67;;
12986;SDS011;58897;51.960;5.582;2023-02-17T11:23:57;7.23;;;4.83;;
12986;SDS011;58897;51.960;5.582;2023-02-17T11:26:27;9.23;;;5.53;;
12986;SDS011;58897;51.960;5.582;2023-02-17T11:29:05;9.40;;;4.90;;
12986;SDS011;58897;51.960;5.582;2023-02-17T11:31:52;7.57;;;5.10;;
12986;SDS011;58897;51.960;5.582;2023-02-17T11:34:30;8.40;;;5.30;;
12986;SDS011;58897;51.960;5.582;2023-02-17T11:39:39;10.47;;;5.67;;
12986;SDS011;58897;51.960;5.582;2023-02-17T11:44:56;10.47;;;5.13;;
12986;SDS011;58897;51.960;5.582;2023-02-17T11:56:03;10.13;;;6.13;;
12986;SDS011;58897;51.960;5.582;2023-02-17T11:58:47;9.97;;;5.77;;
12986;SDS011;58897;51.960;5.582;2023-02-17T12:04:16;12.13;;;6.37;;
12986;SDS011;58897;51.960;5.582;2023-02-17T12:16:01;11.93;;;5.80;;
12986;SDS011;58897;51.960;5.582;2023-02-17T12:18:48;10.77;;;5.80;;
12986;SDS011;58897;51.960;5.582;2023-02-17T12:21:22;14.93;;;7.37;;
12986;SDS011;58897;51.960;5.582;2023-02-17T12:24:35;11.87;;;6.20;;
12986;SDS011;58897;51.960;5.582;2023-02-17T12:29:49;9.30;;;5.80;;
12986;SDS011;58897;51.960;5.582;2023-02-17T12:32:23;14.47;;;6.57;;
12986;SDS011;58897;51.960;5.582;2023-02-17T12:35:11;10.67;;;6.23;;
12986;SDS011;58897;51.960;5.582;2023-02-17T12:37:47;11.63;;;6.03;;
12986;SDS011;58897;51.960;5.582;2023-02-17T12:40:23;12.60;;;6.07;;
12986;SDS011;58897;51.960;5.582;2023-02-17T12:42:59;7.77;;;5.47;;
12986;SDS011;58897;51.960;5.582;2023-02-17T12:45:38;13.97;;;6.27;;
12986;SDS011;58897;51.960;5.582;2023-02-17T12:51:02;7.57;;;4.17;;
12986;SDS011;58897;51.960;5.582;2023-02-17T12:53:53;9.07;;;5.07;;
12986;SDS011;58897;51.960;5.582;2023-02-17T12:58:54;7.70;;;4.60;;
12986;SDS011;58897;51.960;5.582;2023-02-17T13:01:24;10.73;;;4.77;;
12986;SDS011;58897;51.960;5.582;2023-02-17T13:03:57;6.77;;;4.30;;
12986;SDS011;58897;51.960;5.582;2023-02-17T13:06:32;10.07;;;4.63;;
12986;SDS011;58897;51.960;5.582;2023-02-17T13:11:50;7.97;;;4.50;;
12986;SDS011;58897;51.960;5.582;2023-02-17T13:14:23;8.63;;;4.20;;
12986;SDS011;58897;51.960;5.582;2023-02-17T13:16:52;10.23;;;4.13;;
12986;SDS011;58897;51.960;5.582;2023-02-17T13:19:29;6.80;;;4.37;;
12986;SDS011;58897;51.960;5.582;2023-02-17T13:21:58;6.07;;;3.30;;
12986;SDS011;58897;51.960;5.582;2023-02-17T13:24:37;11.33;;;4.47;;
12986;SDS011;58897;51.960;5.582;2023-02-17T13:32:27;8.47;;;4.33;;
12986;SDS011;58897;51.960;5.582;2023-02-17T13:35:06;10.27;;;4.77;;
12986;SDS011;58897;51.960;5.582;2023-02-17T13:37:43;8.47;;;4.47;;
12986;SDS011;58897;51.960;5.582;2023-02-17T13:42:47;8.30;;;4.70;;
12986;SDS011;58897;51.960;5.582;2023-02-17T13:45:20;7.83;;;4.03;;
12986;SDS011;58897;51.960;5.582;2023-02-17T13:47:51;6.90;;;4.03;;
12986;SDS011;58897;51.960;5.582;2023-02-17T13:53:07;5.70;;;3.40;;
12986;SDS011;58897;51.960;5.582;2023-02-17T13:55:50;8.97;;;3.90;;
12986;SDS011;58897;51.960;5.582;2023-02-17T13:58:22;8.90;;;3.93;;
12986;SDS011;58897;51.960;5.582;2023-02-17T14:00:56;7.13;;;4.37;;
12986;SDS011;58897;51.960;5.582;2023-02-17T14:05:55;7.37;;;3.50;;
12986;SDS011;58897;51.960;5.582;2023-02-17T14:10:57;8.33;;;4.23;;
12986;SDS011;58897;51.960;5.582;2023-02-17T14:13:32;8.43;;;4.73;;
12986;SDS011;58897;51.960;5.582;2023-02-17T14:15:59;9.40;;;4.93;;
12986;SDS011;58897;51.960;5.582;2023-02-17T14:18:37;7.97;;;4.40;;
12986;SDS011;58897;51.960;5.582;2023-02-17T14:23:49;7.70;;;4.43;;
12986;SDS011;58897;51.960;5.582;2023-02-17T14:29:05;10.37;;;4.73;;
12986;SDS011;58897;51.960;5.582;2023-02-17T14:31:41;7.47;;;4.07;;
12986;SDS011;58897;51.960;5.582;2023-02-17T14:34:23;9.97;;;4.40;;
12986;SDS011;58897;51.960;5.582;2023-02-17T14:37:05;9.13;;;4.30;;
12986;SDS011;58897;51.960;5.582;2023-02-17T14:39:36;8.10;;;4.47;;
12986;SDS011;58897;51.960;5.582;2023-02-17T14:42:02;15.13;;;4.47;;
12986;SDS011;58897;51.960;5.582;2023-02-17T14:44:29;10.60;;;5.20;;
12986;SDS011;58897;51.960;5.582;2023-02-17T14:46:56;8.70;;;4.10;;
12986;SDS011;58897;51.960;5.582;2023-02-17T14:49:22;8.70;;;4.80;;
12986;SDS011;58897;51.960;5.582;2023-02-17T14:51:49;10.20;;;5.10;;
12986;SDS011;58897;51.960;5.582;2023-02-17T14:54:15;14.10;;;5.40;;
12986;SDS011;58897;51.960;5.582;2023-02-17T14:56:57;6.17;;;3.80;;
12986;SDS011;58897;51.960;5.582;2023-02-17T14:59:31;9.30;;;4.57;;
12986;SDS011;58897;51.960;5.582;2023-02-17T15:01:57;9.67;;;3.83;;
12986;SDS011;58897;51.960;5.582;2023-02-17T15:04:24;6.30;;;4.50;;
12986;SDS011;58897;51.960;5.582;2023-02-17T15:06:50;5.80;;;3.90;;
12986;SDS011;58897;51.960;5.582;2023-02-17T15:09:22;9.03;;;5.37;;
12986;SDS011;58897;51.960;5.582;2023-02-17T15:11:54;7.87;;;4.70;;
12986;SDS011;58897;51.960;5.582;2023-02-17T15:14:22;11.20;;;5.00;;
12986;SDS011;58897;51.960;5.582;2023-02-17T15:16:49;10.60;;;5.10;;
12986;SDS011;58897;51.960;5.582;2023-02-17T15:19:16;9.00;;;4.17;;
12986;SDS011;58897;51.960;5.582;2023-02-17T15:21:44;8.57;;;5.30;;
12986;SDS011;58897;51.960;5.582;2023-02-17T15:24:14;13.23;;;5.50;;
12986;SDS011;58897;51.960;5.582;2023-02-17T15:26:56;10.10;;;5.67;;
12986;SDS011;58897;51.960;5.582;2023-02-17T15:29:23;8.27;;;4.70;;
12986;SDS011;58897;51.960;5.582;2023-02-17T15:31:50;8.57;;;4.70;;
12986;SDS011;58897;51.960;5.582;2023-02-17T15:34:24;11.80;;;4.90;;
12986;SDS011;58897;51.960;5.582;2023-02-17T15:36:56;12.37;;;5.00;;
12986;SDS011;58897;51.960;5.582;2023-02-17T15:39:24;10.20;;;5.83;;
12986;SDS011;58897;51.960;5.582;2023-02-17T15:41:51;11.70;;;5.60;;
12986;SDS011;58897;51.960;5.582;2023-02-17T15:44:23;9.00;;;4.63;;
12986;SDS011;58897;51.960;5.582;2023-02-17T15:46:54;10.67;;;5.20;;
12986;SDS011;58897;51.960;5.582;2023-02-17T15:49:21;9.40;;;5.60;;
12986;SDS011;58897;51.960;5.582;2023-02-17T15:51:48;10.07;;;5.53;;
12986;SDS011;58897;51.960;5.582;2023-02-17T15:54:14;12.23;;;5.40;;
12986;SDS011;58897;51.960;5.582;2023-02-17T15:56:45;9.73;;;5.07;;
12986;SDS011;58897;51.960;5.582;2023-02-17T15:59:15;9.27;;;4.90;;
12986;SDS011;58897;51.960;5.582;2023-02-17T16:01:45;8.07;;;4.40;;
12986;SDS011;58897;51.960;5.582;2023-02-17T16:04:12;8.70;;;4.00;;
12986;SDS011;58897;51.960;5.582;2023-02-17T16:06:40;11.10;;;4.80;;
12986;SDS011;58897;51.960;5.582;2023-02-17T16:09:07;8.07;;;4.90;;
12986;SDS011;58897;51.960;5.582;2023-02-17T16:11:34;9.63;;;4.97;;
12986;SDS011;58897;51.960;5.582;2023-02-17T16:14:02;9.43;;;4.47;;
12986;SDS011;58897;51.960;5.582;2023-02-17T16:16:30;11.67;;;4.93;;
12986;SDS011;58897;51.960;5.582;2023-02-17T16:18:58;9.17;;;4.00;;
12986;SDS011;58897;51.960;5.582;2023-02-17T16:21:25;14.27;;;4.80;;
12986;SDS011;58897;51.960;5.582;2023-02-17T16:23:52;12.17;;;5.70;;
12986;SDS011;58897;51.960;5.582;2023-02-17T16:26:25;12.47;;;4.70;;
12986;SDS011;58897;51.960;5.582;2023-02-17T16:28:55;12.77;;;5.30;;
12986;SDS011;58897;51.960;5.582;2023-02-17T16:31:22;10.30;;;5.47;;
12986;SDS011;58897;51.960;5.582;2023-02-17T16:33:49;9.80;;;5.07;;
12986;SDS011;58897;51.960;5.582;2023-02-17T16:36:18;12.13;;;5.03;;
12986;SDS011;58897;51.960;5.582;2023-02-17T16:38:47;10.00;;;4.13;;
12986;SDS011;58897;51.960;5.582;2023-02-17T16:41:16;9.37;;;5.00;;